Time;durP1;ratioP1;P1;durP2;ratioP2;P2;SDS_P1;SDS_P2;PMS_P1;PMS_P2;Temp;Humidity;BMP_temperature;BMP_pressure;BME280_temperature;BME280_humidity;BME280_pressure;Samples;Min_cycle;Max_cycle;Signal;HPM_P1;HPM_P2
2023/04/04 00:00:21;;;;;;;2.90;0.85;;;;;;;;;;5068889;28;20024;-78
2023/04/04 00:02:47;;;;;;;3.92;0.85;;;;;;;;;;5065869;28;20027;-78
2023/04/04 00:05:13;;;;;;;0.90;0.90;;;;;;;;;;5069368;28;20162;-77
2023/04/04 00:07:38;;;;;;;1.20;1.10;;;;;;;;;;5068848;28;20052;-79
2023/04/04 00:10:04;;;;;;;3.55;1.50;;;;;;;;;;5071399;28;20024;-78
2023/04/04 00:12:30;;;;;;;1.30;1.20;;;;;;;;;;5071356;28;20038;-79
2023/04/04 00:15:01;;;;;;;0.95;0.80;;;;;;;;;;5073418;28;20032;-79
2023/04/04 00:17:27;;;;;;;1.38;1.27;;;;;;;;;;5066914;28;20446;-79
2023/04/04 00:19:52;;;;;;;1.42;1.20;;;;;;;;;;5074579;28;20032;-79
2023/04/04 00:22:17;;;;;;;1.30;0.80;;;;;;;;;;5076999;28;20391;-79
2023/04/04 00:24:43;;;;;;;1.45;1.35;;;;;;;;;;5075500;28;20451;-79
2023/04/04 00:27:08;;;;;;;0.70;0.70;;;;;;;;;;5076647;28;20021;-79
2023/04/04 00:29:33;;;;;;;1.73;1.00;;;;;;;;;;5074786;28;20043;-78
2023/04/04 00:31:59;;;;;;;1.67;1.15;;;;;;;;;;5064548;28;20033;-79
2023/04/04 00:34:25;;;;;;;1.20;1.10;;;;;;;;;;5076115;28;20040;-79
2023/04/04 00:36:51;;;;;;;0.80;0.80;;;;;;;;;;5053741;28;20070;-79
2023/04/04 00:39:17;;;;;;;1.00;1.00;;;;;;;;;;5074652;28;20042;-78
2023/04/04 00:41:42;;;;;;;2.78;1.17;;;;;;;;;;5078181;28;20024;-79
2023/04/04 00:44:08;;;;;;;2.15;1.00;;;;;;;;;;5076233;28;20033;-79
2023/04/04 00:46:33;;;;;;;0.93;0.93;;;;;;;;;;5083732;28;20050;-79
2023/04/04 00:48:59;;;;;;;1.48;1.20;;;;;;;;;;5074251;28;20028;-78
2023/04/04 00:51:24;;;;;;;1.42;1.33;;;;;;;;;;5053590;28;20028;-77
2023/04/04 00:53:51;;;;;;;1.85;1.17;;;;;;;;;;5064227;28;20407;-77
2023/04/04 00:56:17;;;;;;;1.85;1.45;;;;;;;;;;5072430;28;20044;-77
2023/04/04 00:58:43;;;;;;;1.33;1.23;;;;;;;;;;5078755;28;20016;-77
2023/04/04 01:01:10;;;;;;;1.17;1.17;;;;;;;;;;5072611;28;20483;-76
2023/04/04 01:03:36;;;;;;;0.88;0.88;;;;;;;;;;5082385;28;20071;-78
2023/04/04 01:06:02;;;;;;;1.27;1.17;;;;;;;;;;5084065;28;20021;-76
2023/04/04 01:08:29;;;;;;;1.70;1.00;;;;;;;;;;5065926;28;20033;-77
2023/04/04 01:10:55;;;;;;;2.75;1.85;;;;;;;;;;5065181;28;20111;-78
2023/04/04 01:13:20;;;;;;;0.88;0.88;;;;;;;;;;5078817;28;20024;-78
2023/04/04 01:15:46;;;;;;;2.42;1.45;;;;;;;;;;5075046;28;20028;-78
2023/04/04 01:18:14;;;;;;;3.75;1.17;;;;;;;;;;5068302;28;20078;-78
2023/04/04 01:20:49;;;;;;;0.98;0.98;;;;;;;;;;5079222;28;20077;-79
2023/04/04 01:23:16;;;;;;;1.30;1.10;;;;;;;;;;5076846;28;20097;-78
2023/04/04 01:25:41;;;;;;;1.30;1.20;;;;;;;;;;5066032;28;20040;-79
2023/04/04 01:28:07;;;;;;;1.88;1.05;;;;;;;;;;5078232;28;20078;-78
2023/04/04 01:30:35;;;;;;;1.08;1.08;;;;;;;;;;5074265;28;20027;-77
2023/04/04 01:33:19;;;;;;;1.27;1.20;;;;;;;;;;5072083;28;20020;-77
2023/04/04 01:36:05;;;;;;;1.67;1.58;;;;;;;;;;5064165;28;20456;-77
2023/04/04 01:38:48;;;;;;;1.00;0.93;;;;;;;;;;5068344;28;20063;-77
2023/04/04 01:41:14;;;;;;;2.53;1.33;;;;;;;;;;5066596;28;20031;-78
2023/04/04 01:43:43;;;;;;;1.40;1.20;;;;;;;;;;5074341;28;20024;-78
2023/04/04 01:46:09;;;;;;;2.30;0.95;;;;;;;;;;5064281;28;20045;-78
2023/04/04 01:48:34;;;;;;;1.00;0.80;;;;;;;;;;5077766;28;20542;-78
2023/04/04 01:51:00;;;;;;;1.00;1.00;;;;;;;;;;5078443;28;20033;-79
2023/04/04 01:53:26;;;;;;;6.22;1.08;;;;;;;;;;5078968;28;20024;-78
2023/04/04 01:55:51;;;;;;;1.10;1.00;;;;;;;;;;5063072;28;20028;-77
2023/04/04 01:58:17;;;;;;;1.30;1.20;;;;;;;;;;5071647;28;20433;-77
2023/04/04 02:00:42;;;;;;;3.08;1.25;;;;;;;;;;5061632;28;20029;-78
2023/04/04 02:03:08;;;;;;;1.55;1.45;;;;;;;;;;5070607;28;20373;-77
2023/04/04 02:05:33;;;;;;;1.85;1.20;;;;;;;;;;5066813;28;20078;-77
2023/04/04 02:07:58;;;;;;;1.17;1.17;;;;;;;;;;5075997;28;20051;-77
2023/04/04 02:10:24;;;;;;;1.10;1.10;;;;;;;;;;5078276;28;20119;-77
2023/04/04 02:12:52;;;;;;;0.90;0.90;;;;;;;;;;5071740;28;20027;-77
2023/04/04 02:15:24;;;;;;;1.85;1.20;;;;;;;;;;5059654;28;20040;-77
2023/04/04 02:17:49;;;;;;;2.05;0.90;;;;;;;;;;5074153;28;20377;-77
2023/04/04 02:20:17;;;;;;;7.28;1.15;;;;;;;;;;5067257;28;20054;-78
2023/04/04 02:22:48;;;;;;;1.65;1.35;;;;;;;;;;5070475;28;20047;-78
2023/04/04 02:25:14;;;;;;;4.88;1.55;;;;;;;;;;5063072;28;20024;-77
2023/04/04 02:27:39;;;;;;;1.15;1.15;;;;;;;;;;5072241;28;20035;-77
2023/04/04 02:30:05;;;;;;;1.98;1.25;;;;;;;;;;5070163;28;20512;-78
2023/04/04 02:32:31;;;;;;;4.90;1.75;;;;;;;;;;5071220;28;20033;-77
2023/04/04 02:34:56;;;;;;;1.92;1.52;;;;;;;;;;5060023;28;20021;-77
2023/04/04 02:37:21;;;;;;;1.25;1.15;;;;;;;;;;5069104;28;20033;-78
2023/04/04 02:39:47;;;;;;;1.35;1.25;;;;;;;;;;5067085;28;20480;-79
2023/04/04 02:42:12;;;;;;;0.90;0.90;;;;;;;;;;5077793;28;20060;-80
2023/04/04 02:44:37;;;;;;;6.47;1.38;;;;;;;;;;5051777;28;20377;-79
2023/04/04 02:47:04;;;;;;;1.10;1.10;;;;;;;;;;5076901;28;20028;-79
2023/04/04 02:49:30;;;;;;;0.85;0.85;;;;;;;;;;5070899;28;20040;-80
2023/04/04 02:51:56;;;;;;;0.90;0.90;;;;;;;;;;5063570;28;20028;-79
2023/04/04 02:54:21;;;;;;;0.82;0.82;;;;;;;;;;5075624;28;20040;-80
2023/04/04 02:56:47;;;;;;;1.58;1.17;;;;;;;;;;5077677;28;20098;-79
2023/04/04 02:59:12;;;;;;;1.05;1.02;;;;;;;;;;5068681;28;20040;-77
2023/04/04 03:01:37;;;;;;;1.20;1.10;;;;;;;;;;5072790;28;20039;-79
2023/04/04 03:04:04;;;;;;;2.47;1.10;;;;;;;;;;5077352;28;20377;-78
2023/04/04 03:06:32;;;;;;;0.85;0.85;;;;;;;;;;5082090;28;20024;-78
2023/04/04 03:08:58;;;;;;;6.53;0.95;;;;;;;;;;5085249;28;20059;-78
2023/04/04 03:11:23;;;;;;;5.93;1.55;;;;;;;;;;5077843;28;20037;-78
2023/04/04 03:13:50;;;;;;;4.60;1.40;;;;;;;;;;5080870;28;20399;-78
2023/04/04 03:16:16;;;;;;;1.63;0.95;;;;;;;;;;5080109;28;20082;-78
2023/04/04 03:18:42;;;;;;;1.65;1.33;;;;;;;;;;5076559;28;20082;-78
2023/04/04 03:21:07;;;;;;;1.73;1.63;;;;;;;;;;5076312;28;20087;-78
2023/04/04 03:23:33;;;;;;;1.27;1.10;;;;;;;;;;5085685;28;20572;-78
2023/04/04 03:25:58;;;;;;;4.40;1.30;;;;;;;;;;5080814;28;20403;-78
2023/04/04 03:28:23;;;;;;;1.00;1.00;;;;;;;;;;5078575;28;20029;-78
2023/04/04 03:30:49;;;;;;;1.27;0.95;;;;;;;;;;5077416;28;20487;-78
2023/04/04 03:33:15;;;;;;;0.95;0.95;;;;;;;;;;5075353;28;20024;-78
2023/04/04 03:35:41;;;;;;;1.65;1.15;;;;;;;;;;5069974;28;20025;-78
2023/04/04 03:38:08;;;;;;;0.88;0.88;;;;;;;;;;5079758;28;20089;-78
2023/04/04 03:40:34;;;;;;;1.17;1.15;;;;;;;;;;5076499;28;20025;-78
2023/04/04 03:43:01;;;;;;;5.35;1.33;;;;;;;;;;5078498;28;20154;-78
2023/04/04 03:45:27;;;;;;;1.15;1.15;;;;;;;;;;5074508;28;20043;-79
2023/04/04 03:47:53;;;;;;;1.30;1.20;;;;;;;;;;5078158;28;20030;-78
2023/04/04 03:50:18;;;;;;;1.08;1.08;;;;;;;;;;5076665;28;20044;-78
2023/04/04 03:52:43;;;;;;;2.90;1.35;;;;;;;;;;5070983;28;20024;-78
2023/04/04 03:55:09;;;;;;;1.33;1.10;;;;;;;;;;5073869;28;20029;-78
2023/04/04 03:57:35;;;;;;;1.67;1.58;;;;;;;;;;5077142;28;20032;-78
2023/04/04 04:00:00;;;;;;;1.17;1.17;;;;;;;;;;5075550;28;20528;-78
2023/04/04 04:02:26;;;;;;;2.60;1.42;;;;;;;;;;5076727;28;20103;-78
2023/04/04 04:04:51;;;;;;;3.10;1.50;;;;;;;;;;5067372;28;20048;-78
2023/04/04 04:07:16;;;;;;;1.13;1.10;;;;;;;;;;5078085;28;20112;-78
2023/04/04 04:09:42;;;;;;;3.15;1.80;;;;;;;;;;5071655;28;20024;-78
2023/04/04 04:12:07;;;;;;;0.90;0.90;;;;;;;;;;5075285;28;20020;-78
2023/04/04 04:14:32;;;;;;;9.60;1.27;;;;;;;;;;5071602;28;20489;-78
2023/04/04 04:16:58;;;;;;;1.83;1.30;;;;;;;;;;5074456;28;20021;-80
2023/04/04 04:19:25;;;;;;;0.82;0.82;;;;;;;;;;5051549;28;20020;-79
2023/04/04 04:21:52;;;;;;;1.38;1.23;;;;;;;;;;5070529;28;20040;-77
2023/04/04 04:24:17;;;;;;;1.33;1.23;;;;;;;;;;5050601;28;20052;-77
2023/04/04 04:26:42;;;;;;;1.48;1.38;;;;;;;;;;5070586;28;20554;-78
2023/04/04 04:29:08;;;;;;;1.35;1.33;;;;;;;;;;5071967;28;20362;-79
2023/04/04 04:31:33;;;;;;;1.15;1.15;;;;;;;;;;5078619;28;20028;-77
2023/04/04 04:33:58;;;;;;;1.48;1.38;;;;;;;;;;5077046;28;20385;-79
2023/04/04 04:36:24;;;;;;;2.70;1.63;;;;;;;;;;5076130;28;20028;-79
2023/04/04 04:38:49;;;;;;;1.00;1.00;;;;;;;;;;5082003;28;20138;-79
2023/04/04 04:41:15;;;;;;;1.40;1.30;;;;;;;;;;5074046;28;20025;-78
2023/04/04 04:43:40;;;;;;;1.70;1.45;;;;;;;;;;5074858;28;20032;-78
2023/04/04 04:46:07;;;;;;;1.65;1.50;;;;;;;;;;5058967;28;20016;-80
2023/04/04 04:48:33;;;;;;;2.13;1.73;;;;;;;;;;5088453;28;20511;-79
2023/04/04 04:50:58;;;;;;;1.08;1.08;;;;;;;;;;5073835;28;20024;-78
2023/04/04 04:53:23;;;;;;;1.20;1.10;;;;;;;;;;5071798;28;20084;-78
2023/04/04 04:55:51;;;;;;;4.28;1.30;;;;;;;;;;5074017;28;20033;-76
2023/04/04 04:58:16;;;;;;;2.03;1.48;;;;;;;;;;5056538;28;20028;-77
2023/04/04 05:00:42;;;;;;;1.95;1.60;;;;;;;;;;5073348;28;20076;-78
2023/04/04 05:03:07;;;;;;;1.50;1.40;;;;;;;;;;5069521;28;20109;-78
2023/04/04 05:05:33;;;;;;;2.20;1.48;;;;;;;;;;5071244;28;20365;-78
2023/04/04 05:08:03;;;;;;;1.60;1.33;;;;;;;;;;5071791;28;20029;-78
2023/04/04 05:10:29;;;;;;;1.10;1.05;;;;;;;;;;5073712;28;20463;-78
2023/04/04 05:12:55;;;;;;;1.08;1.08;;;;;;;;;;5071710;28;20055;-77
2023/04/04 05:15:20;;;;;;;1.33;0.90;;;;;;;;;;5076194;28;20087;-79
2023/04/04 05:17:46;;;;;;;1.83;1.73;;;;;;;;;;5058855;28;20399;-77
2023/04/04 05:20:11;;;;;;;1.77;1.63;;;;;;;;;;5072398;28;20083;-78
2023/04/04 05:22:44;;;;;;;1.23;1.23;;;;;;;;;;5072601;28;20036;-78
2023/04/04 05:25:11;;;;;;;0.93;0.93;;;;;;;;;;5072838;28;20024;-78
2023/04/04 05:27:37;;;;;;;5.60;1.42;;;;;;;;;;5073765;28;20025;-78
2023/04/04 05:30:06;;;;;;;1.48;1.38;;;;;;;;;;5072562;28;20424;-79
2023/04/04 05:32:33;;;;;;;1.52;1.40;;;;;;;;;;5065362;28;20469;-79
2023/04/04 05:34:59;;;;;;;4.75;1.45;;;;;;;;;;5059404;28;20031;-78
2023/04/04 05:37:24;;;;;;;1.65;1.55;;;;;;;;;;5072014;28;20055;-78
2023/04/04 05:39:49;;;;;;;1.38;1.27;;;;;;;;;;5072523;28;20496;-78
2023/04/04 05:42:15;;;;;;;5.90;1.92;;;;;;;;;;5072509;28;20496;-78
2023/04/04 05:44:41;;;;;;;1.63;1.52;;;;;;;;;;5071507;28;20052;-78
2023/04/04 05:47:06;;;;;;;1.33;1.23;;;;;;;;;;5072134;28;20074;-77
2023/04/04 05:49:32;;;;;;;1.42;1.33;;;;;;;;;;5072144;28;20039;-77
2023/04/04 05:51:57;;;;;;;2.08;1.98;;;;;;;;;;5071516;28;20032;-78
2023/04/04 05:54:22;;;;;;;1.42;1.30;;;;;;;;;;5071991;28;20036;-77
2023/04/04 05:56:48;;;;;;;2.20;1.70;;;;;;;;;;5072178;28;20531;-78
2023/04/04 05:59:13;;;;;;;2.13;1.52;;;;;;;;;;5072830;28;20100;-79
2023/04/04 06:01:39;;;;;;;2.05;1.33;;;;;;;;;;5084255;28;20433;-79
2023/04/04 06:04:05;;;;;;;1.13;1.13;;;;;;;;;;5073744;28;20077;-78
2023/04/04 06:06:34;;;;;;;1.52;1.40;;;;;;;;;;5074811;28;20040;-79
2023/04/04 06:09:04;;;;;;;1.10;1.10;;;;;;;;;;5075343;28;20078;-78
2023/04/04 06:11:29;;;;;;;1.17;1.10;;;;;;;;;;5077980;28;20579;-78
2023/04/04 06:13:54;;;;;;;1.45;1.38;;;;;;;;;;5085016;28;20033;-78
2023/04/04 06:16:20;;;;;;;2.85;1.60;;;;;;;;;;5085917;28;20033;-77
2023/04/04 06:18:46;;;;;;;3.00;1.73;;;;;;;;;;5082205;28;20522;-77
2023/04/04 06:21:12;;;;;;;2.33;2.13;;;;;;;;;;5075127;28;20032;-78
2023/04/04 06:23:38;;;;;;;1.80;1.70;;;;;;;;;;5074683;28;20025;-78
2023/04/04 06:26:04;;;;;;;1.17;1.17;;;;;;;;;;5070112;28;20025;-79
2023/04/04 06:28:29;;;;;;;1.50;1.40;;;;;;;;;;5079091;28;20059;-79
2023/04/04 06:30:55;;;;;;;1.13;1.13;;;;;;;;;;5080916;28;20031;-79
2023/04/04 06:33:20;;;;;;;1.73;1.63;;;;;;;;;;5074011;23;20064;-75
2023/04/04 06:35:45;;;;;;;1.10;1.00;;;;;;;;;;5009932;28;20469;-75
2023/04/04 06:38:11;;;;;;;1.60;1.50;;;;;;;;;;5024614;28;20053;-76
2023/04/04 06:40:36;;;;;;;2.03;1.65;;;;;;;;;;5016142;28;20472;-76
2023/04/04 06:43:02;;;;;;;1.52;1.42;;;;;;;;;;5025676;28;20032;-76
2023/04/04 06:45:27;;;;;;;1.70;1.60;;;;;;;;;;5027989;28;20037;-76
2023/04/04 06:47:53;;;;;;;1.70;1.60;;;;;;;;;;5025688;28;20076;-79
2023/04/04 06:50:22;;;;;;;2.45;2.05;;;;;;;;;;5005273;28;20028;-77
2023/04/04 06:52:48;;;;;;;4.25;2.17;;;;;;;;;;5029851;28;20489;-76
2023/04/04 06:55:14;;;;;;;2.88;1.75;;;;;;;;;;5009548;28;20397;-75
2023/04/04 06:57:40;;;;;;;2.40;1.77;;;;;;;;;;5029940;28;20025;-76
2023/04/04 07:00:06;;;;;;;1.70;1.60;;;;;;;;;;5027243;28;20061;-76
2023/04/04 07:02:32;;;;;;;3.75;1.65;;;;;;;;;;5010703;28;20032;-76
2023/04/04 07:04:57;;;;;;;7.63;2.03;;;;;;;;;;5029653;28;20025;-76
2023/04/04 07:07:23;;;;;;;3.55;1.92;;;;;;;;;;5024563;28;20600;-79
2023/04/04 07:09:49;;;;;;;3.45;1.90;;;;;;;;;;5025926;28;20029;-76
2023/04/04 07:12:14;;;;;;;2.42;2.00;;;;;;;;;;5025351;28;20030;-76
2023/04/04 07:14:40;;;;;;;2.05;1.83;;;;;;;;;;5023056;28;20447;-76
2023/04/04 07:17:06;;;;;;;2.05;1.73;;;;;;;;;;5029411;28;20029;-78
2023/04/04 07:19:31;;;;;;;1.90;1.80;;;;;;;;;;5024739;28;20026;-76
2023/04/04 07:21:57;;;;;;;3.25;2.28;;;;;;;;;;5028757;28;20156;-77
2023/04/04 07:24:22;;;;;;;2.45;2.28;;;;;;;;;;5019960;28;20385;-77
2023/04/04 07:26:47;;;;;;;2.78;2.22;;;;;;;;;;5010494;28;20014;-77
2023/04/04 07:29:13;;;;;;;5.38;1.90;;;;;;;;;;5027704;28;20033;-78
2023/04/04 07:31:38;;;;;;;3.08;1.98;;;;;;;;;;5022424;28;20021;-78
2023/04/04 07:34:04;;;;;;;3.65;1.73;;;;;;;;;;5029834;28;20116;-78
2023/04/04 07:36:34;;;;;;;3.22;1.45;;;;;;;;;;5029748;28;20071;-79
2023/04/04 07:39:00;;;;;;;6.22;2.00;;;;;;;;;;5000823;28;20045;-77
2023/04/04 07:41:26;;;;;;;2.15;1.90;;;;;;;;;;5030489;28;20029;-78
2023/04/04 07:43:51;;;;;;;3.53;1.83;;;;;;;;;;5027359;28;20033;-78
2023/04/04 07:46:17;;;;;;;3.13;1.80;;;;;;;;;;5034266;28;20009;-78
2023/04/04 07:48:42;;;;;;;2.05;1.73;;;;;;;;;;5024548;28;20026;-77
2023/04/04 07:51:08;;;;;;;3.05;1.75;;;;;;;;;;5031948;28;20021;-77
2023/04/04 07:53:33;;;;;;;1.80;1.70;;;;;;;;;;5026026;28;20022;-77
2023/04/04 07:56:04;;;;;;;4.85;2.20;;;;;;;;;;5027145;28;20466;-79
2023/04/04 07:58:30;;;;;;;3.97;2.08;;;;;;;;;;5030307;28;20119;-79
2023/04/04 08:00:55;;;;;;;5.07;1.70;;;;;;;;;;5029020;28;20558;-77
2023/04/04 08:03:22;;;;;;;3.75;1.70;;;;;;;;;;5034015;28;20465;-79
2023/04/04 08:05:48;;;;;;;4.28;1.95;;;;;;;;;;5035308;28;20038;-79
2023/04/04 08:08:13;;;;;;;4.50;1.70;;;;;;;;;;5033254;28;20062;-77
2023/04/04 08:10:38;;;;;;;2.78;1.90;;;;;;;;;;5034642;28;20052;-77
2023/04/04 08:13:04;;;;;;;2.15;1.60;;;;;;;;;;5029362;28;20059;-77
2023/04/04 08:15:30;;;;;;;2.85;1.60;;;;;;;;;;5031982;28;20083;-77
2023/04/04 08:17:55;;;;;;;1.60;1.40;;;;;;;;;;5034377;28;20049;-77
2023/04/04 08:20:21;;;;;;;1.50;1.38;;;;;;;;;;5008806;28;20026;-77
2023/04/04 08:22:46;;;;;;;2.03;1.42;;;;;;;;;;5021597;28;20537;-77
2023/04/04 08:25:11;;;;;;;4.78;2.70;;;;;;;;;;5025506;28;20018;-77
2023/04/04 08:27:42;;;;;;;1.50;1.40;;;;;;;;;;5019697;28;20072;-77
2023/04/04 08:30:08;;;;;;;1.27;1.25;;;;;;;;;;5014820;28;20706;-77
2023/04/04 08:32:33;;;;;;;2.30;1.60;;;;;;;;;;5015749;28;20072;-77
2023/04/04 08:34:59;;;;;;;2.13;1.85;;;;;;;;;;5014695;28;20377;-77
2023/04/04 08:37:24;;;;;;;3.25;1.80;;;;;;;;;;5013329;28;20025;-77
2023/04/04 08:39:50;;;;;;;1.50;1.40;;;;;;;;;;5014271;28;20679;-77
2023/04/04 08:42:19;;;;;;;1.98;1.35;;;;;;;;;;5015485;28;21315;-77
2023/04/04 08:44:46;;;;;;;2.72;1.65;;;;;;;;;;5023994;28;20072;-77
2023/04/04 08:47:15;;;;;;;1.35;1.25;;;;;;;;;;5011472;28;20043;-77
2023/04/04 08:49:45;;;;;;;4.30;1.42;;;;;;;;;;5033982;28;20108;-77
2023/04/04 08:52:18;;;;;;;3.00;1.90;;;;;;;;;;5034082;28;20040;-77
2023/04/04 08:54:45;;;;;;;3.88;1.80;;;;;;;;;;5016000;28;20018;-77
2023/04/04 08:57:10;;;;;;;1.63;1.52;;;;;;;;;;5011997;28;20026;-77
2023/04/04 08:59:36;;;;;;;2.13;1.58;;;;;;;;;;5031429;28;20120;-77
2023/04/04 09:02:07;;;;;;;1.33;1.23;;;;;;;;;;5033220;28;20509;-77
2023/04/04 09:04:32;;;;;;;2.60;2.07;;;;;;;;;;5026470;28;20025;-77
2023/04/04 09:07:01;;;;;;;1.50;1.40;;;;;;;;;;5036698;28;20258;-77
2023/04/04 09:09:27;;;;;;;4.03;2.35;;;;;;;;;;5014128;28;20025;-78
2023/04/04 09:11:53;;;;;;;4.18;1.67;;;;;;;;;;5014785;28;21348;-77
2023/04/04 09:14:20;;;;;;;1.85;1.35;;;;;;;;;;5012808;28;20075;-77
2023/04/04 09:16:45;;;;;;;4.15;1.73;;;;;;;;;;5013366;28;20030;-77
2023/04/04 09:19:11;;;;;;;2.85;1.85;;;;;;;;;;5012759;28;20029;-77
2023/04/04 09:21:36;;;;;;;3.05;1.63;;;;;;;;;;5011738;28;20032;-78
2023/04/04 09:24:03;;;;;;;1.60;1.50;;;;;;;;;;5012318;28;20033;-78
2023/04/04 09:26:46;;;;;;;2.50;1.55;;;;;;;;;;5012347;28;20448;-78
2023/04/04 09:29:11;;;;;;;5.75;1.25;;;;;;;;;;5011356;28;20025;-78
2023/04/04 09:31:37;;;;;;;2.22;1.55;;;;;;;;;;5024838;28;20021;-77
2023/04/04 09:34:03;;;;;;;1.92;1.20;;;;;;;;;;5030356;28;20450;-77
2023/04/04 09:36:28;;;;;;;2.88;1.60;;;;;;;;;;5025348;28;20017;-78
2023/04/04 09:38:54;;;;;;;5.32;1.83;;;;;;;;;;5004513;28;20390;-77
2023/04/04 09:41:20;;;;;;;2.50;1.63;;;;;;;;;;5012151;28;20069;-78
2023/04/04 09:43:46;;;;;;;4.32;1.77;;;;;;;;;;5022042;28;20040;-78
2023/04/04 09:46:11;;;;;;;1.73;1.50;;;;;;;;;;5015938;28;20378;-78
2023/04/04 09:48:37;;;;;;;1.65;1.55;;;;;;;;;;5015902;28;20034;-78
2023/04/04 09:51:04;;;;;;;2.17;1.75;;;;;;;;;;5015567;28;20025;-78
2023/04/04 09:53:33;;;;;;;2.88;1.77;;;;;;;;;;5016153;28;20033;-77
2023/04/04 09:55:59;;;;;;;2.63;1.75;;;;;;;;;;5021563;28;20921;-77
2023/04/04 09:58:26;;;;;;;1.45;1.20;;;;;;;;;;5032513;28;20048;-78
2023/04/04 10:00:58;;;;;;;3.67;1.60;;;;;;;;;;5033281;28;20024;-77
2023/04/04 10:03:25;;;;;;;2.65;1.77;;;;;;;;;;5024279;28;20036;-77
2023/04/04 10:06:04;;;;;;;2.75;1.52;;;;;;;;;;5025208;28;20018;-77
2023/04/04 10:08:30;;;;;;;2.30;1.70;;;;;;;;;;5012546;28;20183;-78
2023/04/04 10:10:58;;;;;;;2.47;1.45;;;;;;;;;;5015840;28;20544;-78
2023/04/04 10:13:27;;;;;;;2.00;1.70;;;;;;;;;;5013593;28;20037;-78
2023/04/04 10:15:54;;;;;;;2.55;1.55;;;;;;;;;;5014369;28;20037;-77
2023/04/04 10:18:23;;;;;;;5.35;2.03;;;;;;;;;;5010101;28;20478;-77
2023/04/04 10:20:49;;;;;;;2.15;1.50;;;;;;;;;;5032070;28;20017;-78
2023/04/04 10:23:15;;;;;;;1.63;1.52;;;;;;;;;;5027407;28;20026;-77
2023/04/04 10:25:41;;;;;;;1.35;1.25;;;;;;;;;;5028262;28;20017;-78
2023/04/04 10:28:07;;;;;;;2.30;1.75;;;;;;;;;;5026882;28;20106;-78
2023/04/04 10:30:39;;;;;;;4.63;2.08;;;;;;;;;;5029569;28;20048;-78
2023/04/04 10:33:14;;;;;;;;;;;;;;;;;;5028029;28;21216;-78
2023/04/04 10:35:42;;;;;;;1.25;1.23;;;;;;;;;;5012224;28;20363;-78
2023/04/04 10:38:08;;;;;;;2.60;1.38;;;;;;;;;;5010876;28;20045;-78
2023/04/04 10:40:37;;;;;;;1.75;1.60;;;;;;;;;;5014959;28;20030;-78
2023/04/04 10:43:04;;;;;;;2.47;1.92;;;;;;;;;;5014118;28;20026;-78
2023/04/04 10:45:37;;;;;;;1.65;1.52;;;;;;;;;;5010406;28;20029;-79
2023/04/04 10:48:03;;;;;;;4.90;1.70;;;;;;;;;;5012301;28;20622;-78
2023/04/04 10:50:32;;;;;;;5.20;2.13;;;;;;;;;;5011653;28;20079;-78
2023/04/04 10:53:00;;;;;;;2.28;1.58;;;;;;;;;;5011267;28;20389;-78
2023/04/04 10:55:26;;;;;;;2.30;1.60;;;;;;;;;;5011251;28;20052;-78
2023/04/04 10:57:54;;;;;;;1.95;1.45;;;;;;;;;;4993557;28;20581;-78
2023/04/04 11:00:22;;;;;;;2.67;1.45;;;;;;;;;;5010381;28;20108;-78
2023/04/04 11:02:51;;;;;;;3.55;1.60;;;;;;;;;;5011968;28;20034;-78
2023/04/04 11:05:21;;;;;;;1.30;1.20;;;;;;;;;;5011489;28;20029;-78
2023/04/04 11:07:52;;;;;;;2.08;1.83;;;;;;;;;;5012493;28;20108;-78
2023/04/04 11:10:24;;;;;;;2.85;1.20;;;;;;;;;;5023330;28;20044;-79
2023/04/04 11:12:53;;;;;;;;;;;;;;;;;;5022326;28;20025;-79
2023/04/04 11:15:20;;;;;;;1.70;1.42;;;;;;;;;;5012578;28;19963;-78
2023/04/04 11:17:53;;;;;;;2.15;1.60;;;;;;;;;;5024259;28;20048;-78
2023/04/04 11:20:23;;;;;;;3.15;1.55;;;;;;;;;;5021440;28;20029;-78
2023/04/04 11:23:02;;;;;;;1.70;1.50;;;;;;;;;;5018586;28;20029;-78
2023/04/04 11:25:31;;;;;;;1.42;1.20;;;;;;;;;;5015901;28;20052;-80
2023/04/04 11:27:57;;;;;;;3.03;1.52;;;;;;;;;;5014499;28;20049;-79
2023/04/04 11:30:23;;;;;;;3.65;2.20;;;;;;;;;;5014960;28;20033;-78
2023/04/04 11:32:50;;;;;;;2.33;1.67;;;;;;;;;;5024705;28;20083;-78
2023/04/04 11:35:16;;;;;;;2.05;1.45;;;;;;;;;;5037465;28;20029;-79
2023/04/04 11:37:51;;;;;;;2.42;1.60;;;;;;;;;;5039330;28;20113;-78
2023/04/04 11:40:17;;;;;;;4.85;2.40;;;;;;;;;;5016786;28;20501;-79
2023/04/04 11:42:42;;;;;;;3.10;1.60;;;;;;;;;;5034079;28;20043;-78
2023/04/04 11:45:11;;;;;;;3.25;2.03;;;;;;;;;;5038221;28;20018;-77
2023/04/04 11:47:38;;;;;;;1.17;1.10;;;;;;;;;;5038583;28;20037;-78
2023/04/04 11:50:08;;;;;;;3.08;1.80;;;;;;;;;;5031690;28;20029;-77
2023/04/04 11:52:34;;;;;;;3.00;2.10;;;;;;;;;;5017810;28;20076;-78
2023/04/04 11:54:59;;;;;;;3.90;1.88;;;;;;;;;;5023649;28;20026;-78
2023/04/04 11:57:26;;;;;;;3.15;1.80;;;;;;;;;;5036602;28;20030;-78
2023/04/04 11:59:51;;;;;;;1.80;1.48;;;;;;;;;;5029462;28;20448;-78
2023/04/04 12:02:23;;;;;;;3.35;2.10;;;;;;;;;;5028742;28;20052;-78
2023/04/04 12:04:50;;;;;;;;;;;;;;;;;;5015984;28;20032;-78
2023/04/04 12:07:16;;;;;;;2.08;1.60;;;;;;;;;;5037873;28;19917;-78
2023/04/04 12:09:41;;;;;;;2.05;1.50;;;;;;;;;;5034445;28;20105;-78
2023/04/04 12:12:13;;;;;;;3.90;1.70;;;;;;;;;;5036171;28;20053;-77
2023/04/04 12:14:39;;;;;;;2.30;1.45;;;;;;;;;;5030648;28;20519;-79
2023/04/04 12:17:04;;;;;;;3.08;1.55;;;;;;;;;;5032153;28;20030;-79
2023/04/04 12:19:30;;;;;;;3.30;2.03;;;;;;;;;;5013812;28;20126;-79
2023/04/04 12:21:57;;;;;;;6.05;2.00;;;;;;;;;;5045425;28;20040;-79
2023/04/04 12:24:22;;;;;;;3.90;1.63;;;;;;;;;;5039962;28;20028;-79
2023/04/04 12:26:51;;;;;;;3.45;1.83;;;;;;;;;;5032175;28;20070;-79
2023/04/04 12:29:18;;;;;;;3.05;2.28;;;;;;;;;;5034333;28;20108;-79
2023/04/04 12:31:45;;;;;;;3.30;1.67;;;;;;;;;;5011085;28;20853;-78
2023/04/04 12:34:27;;;;;;;3.72;1.48;;;;;;;;;;5014590;28;20111;-78
2023/04/04 12:36:57;;;;;;;3.00;1.90;;;;;;;;;;5029740;28;20026;-78
2023/04/04 12:39:26;;;;;;;1.83;1.60;;;;;;;;;;5032434;28;20061;-78
2023/04/04 12:41:56;;;;;;;1.95;1.48;;;;;;;;;;5027458;28;20025;-78
2023/04/04 12:44:26;;;;;;;3.67;2.00;;;;;;;;;;5017329;28;20030;-78
2023/04/04 12:46:57;;;;;;;1.60;1.48;;;;;;;;;;5018156;28;20664;-79
2023/04/04 12:49:23;;;;;;;4.60;2.15;;;;;;;;;;5001659;28;20487;-78
2023/04/04 12:51:51;;;;;;;1.95;1.75;;;;;;;;;;5021258;28;20512;-78
2023/04/04 12:54:25;;;;;;;2.97;1.60;;;;;;;;;;5018535;28;20049;-78
2023/04/04 12:56:57;;;;;;;2.53;1.80;;;;;;;;;;5018391;28;20589;-78
2023/04/04 12:59:23;;;;;;;;;;;;;;;;;;5017182;28;20951;-78
2023/04/04 13:01:48;;;;;;;2.25;1.45;;;;;;;;;;5019310;28;19963;-78
2023/04/04 13:04:16;;;;;;;4.53;1.48;;;;;;;;;;5017931;28;20084;-78
2023/04/04 13:06:44;;;;;;;4.13;1.90;;;;;;;;;;5017639;28;20018;-78
2023/04/04 13:09:21;;;;;;;1.80;1.70;;;;;;;;;;5019578;28;20064;-78
2023/04/04 13:12:01;;;;;;;2.90;2.00;;;;;;;;;;5021640;28;20528;-83
2023/04/04 13:14:28;;;;;;;2.25;1.40;;;;;;;;;;5014723;28;20029;-78
2023/04/04 13:17:04;;;;;;;3.38;2.00;;;;;;;;;;5017490;28;20031;-78
2023/04/04 13:19:30;;;;;;;4.25;1.70;;;;;;;;;;5016187;28;20168;-78
2023/04/04 13:21:56;;;;;;;1.52;1.40;;;;;;;;;;5017234;28;20400;-78
2023/04/04 13:24:21;;;;;;;2.55;1.90;;;;;;;;;;5030235;28;20029;-77
2023/04/04 13:26:47;;;;;;;3.20;1.80;;;;;;;;;;5013363;28;20028;-77
2023/04/04 13:29:12;;;;;;;1.80;1.52;;;;;;;;;;5010307;28;20032;-77
2023/04/04 13:31:38;;;;;;;1.88;1.77;;;;;;;;;;5058937;22;20037;-87
2023/04/04 13:34:04;;;;;;;1.88;1.70;;;;;;;;;;5014941;28;20048;-88
2023/04/04 13:36:30;;;;;;;3.75;1.88;;;;;;;;;;5009964;28;20492;-88
2023/04/04 13:38:55;;;;;;;3.25;1.83;;;;;;;;;;5010807;28;20052;-87
2023/04/04 13:41:21;;;;;;;2.08;1.80;;;;;;;;;;5026208;28;20021;-87
2023/04/04 13:43:46;;;;;;;3.35;1.80;;;;;;;;;;5017642;28;20075;-89
2023/04/04 13:46:12;;;;;;;2.15;1.73;;;;;;;;;;5033682;28;20026;-89
2023/04/04 13:48:37;;;;;;;2.70;1.70;;;;;;;;;;5017046;28;20388;-88
2023/04/04 13:51:02;;;;;;;4.32;2.00;;;;;;;;;;5014090;28;20296;-88
2023/04/04 13:53:28;;;;;;;3.15;1.98;;;;;;;;;;5022459;28;20120;-88
2023/04/04 13:55:53;;;;;;;3.70;1.83;;;;;;;;;;5030571;28;20094;-90
2023/04/04 13:58:19;;;;;;;2.83;1.60;;;;;;;;;;5035042;28;20072;-89
2023/04/04 14:00:46;;;;;;;2.38;1.80;;;;;;;;;;5003638;28;20401;-88
2023/04/04 14:03:12;;;;;;;2.92;1.88;;;;;;;;;;5020960;28;20021;-88
2023/04/04 14:05:37;;;;;;;4.18;2.00;;;;;;;;;;5021279;28;20021;-88
2023/04/04 14:08:02;;;;;;;3.03;1.92;;;;;;;;;;5022005;28;20030;-87
2023/04/04 14:10:28;;;;;;;3.10;1.50;;;;;;;;;;5022757;28;20021;-87
2023/04/04 14:12:53;;;;;;;2.03;1.75;;;;;;;;;;5038708;28;20049;-87
2023/04/04 14:15:18;;;;;;;3.63;1.60;;;;;;;;;;5030148;28;20036;-88
2023/04/04 14:17:44;;;;;;;2.00;1.70;;;;;;;;;;5039631;28;20036;-87
2023/04/04 14:20:10;;;;;;;2.03;1.35;;;;;;;;;;5039443;28;20087;-88
2023/04/04 14:22:35;;;;;;;2.78;1.67;;;;;;;;;;5042261;28;20021;-88
2023/04/04 14:25:01;;;;;;;2.72;1.73;;;;;;;;;;5040506;28;20381;-89
2023/04/04 14:27:26;;;;;;;2.67;1.77;;;;;;;;;;5025356;28;20056;-88
2023/04/04 14:29:52;;;;;;;4.13;2.05;;;;;;;;;;5036339;28;20030;-88
2023/04/04 14:32:18;;;;;;;1.80;1.70;;;;;;;;;;5020711;28;20021;-88
2023/04/04 14:34:43;;;;;;;2.80;1.83;;;;;;;;;;5021851;28;20029;-89
2023/04/04 14:37:09;;;;;;;3.90;1.90;;;;;;;;;;5021487;28;20024;-88
2023/04/04 14:39:37;;;;;;;2.35;1.90;;;;;;;;;;5027419;28;20035;-89